Glen, Nebraska
Current Conditions -  °F | °C
As of 10:53 AM on Thursday 23 Oct 2014 (Local Time) from KCDR Reporting Station
Clear Clear  
Wind Chill: 61°   Ceiling: Unl
Heat Index: 61°   Visibility: 10mi
Dew Point: 36°   Wind: 10mph
Humidity: 39%   Direction: 240°WSW
Pressure: 30.01"   Gusts: NA
Location:  42.7426°N, 103.391°W
Report Text: KCDR 231653Z AUTO 24009KT 10SM CLR 16/02 A3001 RMK AO2 SLP169 T01610022
Loading
Personal Weather Stations






























Interactive Weather Map
Tropical Storm Tracking
New forecast layout! Learn more

10-Day Weather Forecast

Advertisements
Track Severe Weather on mobile